Time;durP1;ratioP1;P1;durP2;ratioP2;P2;SDS_P1;SDS_P2;PMS_P1;PMS_P2;Temp;Humidity;BMP_temperature;BMP_pressure;BME280_temperature;BME280_humidity;BME280_pressure;Samples;Min_cycle;Max_cycle;Signal;HPM_P1;HPM_P2
2021/12/16 00:01:54;;;;;;;55.00;36.95;;;21.40;84.60;;;;;;1819135;77;21652;-80
2021/12/16 00:34:57;;;;;;;51.55;35.55;;;21.70;84.90;;;;;;1822047;77;21175;-78
2021/12/16 00:37:28;;;;;;;49.38;33.42;;;21.90;84.40;;;;;;1817218;77;21185;-79
2021/12/16 00:39:59;;;;;;;52.78;32.63;;;22.00;84.10;;;;;;1814709;78;21148;-78
2021/12/16 00:55:31;;;;;;;46.80;31.97;;;22.70;80.20;;;;;;1827526;78;21681;-78
2021/12/16 00:57:49;;;;;;;54.18;31.70;;;22.80;79.70;;;;;;1816927;77;21146;-78
2021/12/16 01:00:20;;;;;;;45.40;30.48;;;22.90;78.90;;;;;;1823332;77;21701;-78
2021/12/16 01:05:56;;;;;;;45.33;31.68;;;23.00;77.90;;;;;;1818937;77;21701;-78
2021/12/16 01:49:08;;;;;;;39.55;26.97;;;23.80;72.00;;;;;;1803200;78;21162;-78
2021/12/16 01:51:23;;;;;;;36.77;26.65;;;23.90;72.00;;;;;;1800950;78;21657;-79
2021/12/16 01:56:38;;;;;;;36.28;27.10;;;24.10;71.80;;;;;;1803262;78;21200;-79
2021/12/16 01:58:52;;;;;;;36.50;26.60;;;24.10;71.70;;;;;;1826451;78;21227;-78
2021/12/16 02:01:32;;;;;;;45.45;26.70;;;24.20;70.50;;;;;;1811789;78;21666;-78
2021/12/16 02:04:01;;;;;;;41.95;26.73;;;24.30;70.80;;;;;;1822081;78;21555;-78
2021/12/16 02:09:08;;;;;;;43.87;26.12;;;24.40;70.10;;;;;;1823912;78;21207;-80
2021/12/16 02:11:56;;;;;;;35.90;24.40;;;24.40;70.00;;;;;;1822789;78;21684;-78
2021/12/16 02:32:14;;;;;;;60.35;29.42;;;24.80;68.50;;;;;;1826809;78;21203;-79
2021/12/16 02:34:57;;;;;;;43.70;25.97;;;24.80;67.80;;;;;;1822300;76;21121;-78
2021/12/16 02:37:16;;;;;;;36.95;24.82;;;24.90;68.50;;;;;;1833013;77;21616;-78
2021/12/16 02:39:42;;;;;;;38.65;24.60;;;24.90;68.30;;;;;;1821812;77;21658;-78
2021/12/16 02:42:17;;;;;;;39.53;25.57;;;25.00;68.30;;;;;;1816848;78;21193;-79
2021/12/16 02:49:59;;;;;;;35.40;25.00;;;25.10;68.20;;;;;;1830601;78;21106;-78
2021/12/16 02:52:31;;;;;;;40.90;25.05;;;25.20;68.20;;;;;;1816774;77;21544;-78
2021/12/16 02:55:02;;;;;;;38.28;26.37;;;25.20;68.10;;;;;;1824212;77;21181;-79
2021/12/16 02:57:40;;;;;;;36.68;25.40;;;25.20;67.50;;;;;;1815922;78;21217;-79
2021/12/16 03:00:11;;;;;;;44.70;27.02;;;25.30;67.90;;;;;;1822706;78;21598;-79
2021/12/16 03:02:40;;;;;;;38.85;27.10;;;25.30;68.10;;;;;;1818939;78;21258;-79
2021/12/16 03:05:12;;;;;;;38.33;27.15;;;25.30;67.80;;;;;;1819224;77;21187;-79
2021/12/16 03:07:43;;;;;;;37.15;27.02;;;25.40;67.10;;;;;;1817993;77;21207;-78
2021/12/16 03:18:37;;;;;;;41.28;28.12;;;25.70;66.80;;;;;;1821235;78;21157;-78
2021/12/16 03:20:50;;;;;;;42.65;28.83;;;25.80;67.00;;;;;;1823146;78;21148;-78
2021/12/16 03:23:22;;;;;;;41.05;28.05;;;25.80;67.20;;;;;;1826140;78;21884;-77
2021/12/16 03:36:04;;;;;;;34.13;23.27;;;26.20;65.30;;;;;;1836710;77;21582;-79
2021/12/16 03:38:14;;;;;;;48.00;25.97;;;26.30;64.30;;;;;;1823937;78;21122;-78
2021/12/16 03:40:45;;;;;;;37.98;24.52;;;26.40;64.70;;;;;;1821319;78;21122;-80
2021/12/16 03:43:19;;;;;;;38.90;25.70;;;26.50;64.40;;;;;;1823746;78;21165;-79
2021/12/16 03:48:25;;;;;;;31.52;23.07;;;26.70;63.70;;;;;;1810802;78;21247;-79
2021/12/16 03:50:57;;;;;;;34.40;22.05;;;26.80;62.80;;;;;;1823947;78;21523;-79
2021/12/16 03:53:28;;;;;;;31.82;21.48;;;27.00;63.10;;;;;;1809545;79;21612;-80
2021/12/16 03:55:58;;;;;;;29.95;20.97;;;27.00;62.30;;;;;;1808301;78;21153;-79
2021/12/16 03:58:29;;;;;;;29.57;21.55;;;27.10;61.50;;;;;;1821375;78;21169;-79
2021/12/16 04:01:02;;;;;;;33.00;21.77;;;27.20;60.20;;;;;;1815509;78;21216;-79
2021/12/16 04:03:35;;;;;;;33.48;22.85;;;27.30;60.60;;;;;;1809596;79;21213;-80
2021/12/16 04:06:06;;;;;;;31.15;21.87;;;27.50;61.20;;;;;;1803150;78;21127;-78
2021/12/16 04:08:37;;;;;;;29.52;20.80;;;27.60;60.80;;;;;;1806666;78;21172;-79
2021/12/16 04:11:12;;;;;;;27.15;19.25;;;27.60;58.80;;;;;;1809031;78;21586;-77
2021/12/16 04:13:53;;;;;;;28.90;20.48;;;27.80;58.90;;;;;;1820276;78;21121;-79
2021/12/16 04:16:14;;;;;;;32.73;21.23;;;27.90;59.90;;;;;;1809405;79;21645;-78
2021/12/16 04:18:44;;;;;;;25.55;18.00;;;28.00;59.20;;;;;;1829024;78;21170;-79
2021/12/16 04:21:19;;;;;;;23.92;17.80;;;28.10;58.30;;;;;;1817824;79;21148;-77
2021/12/16 04:23:50;;;;;;;24.18;18.35;;;28.20;57.50;;;;;;1807998;79;22333;-79
2021/12/16 04:26:21;;;;;;;22.73;17.77;;;28.30;56.60;;;;;;1806412;78;21133;-79
2021/12/16 04:28:52;;;;;;;26.12;17.77;;;28.50;56.40;;;;;;1804899;79;21191;-78
2021/12/16 04:31:23;;;;;;;25.92;18.98;;;28.60;56.30;;;;;;1812681;78;21173;-79
2021/12/16 04:33:54;;;;;;;26.30;19.73;;;28.70;56.40;;;;;;1805647;78;21561;-79
2021/12/16 04:36:25;;;;;;;29.10;20.20;;;28.70;56.20;;;;;;1783746;77;21171;-78
2021/12/16 04:38:56;;;;;;;29.98;20.23;;;28.70;56.30;;;;;;1830439;77;21265;-78
2021/12/16 04:41:28;;;;;;;25.52;19.30;;;28.70;56.70;;;;;;1836074;77;21201;-77
2021/12/16 04:43:59;;;;;;;24.82;18.05;;;28.80;55.80;;;;;;1843505;77;21139;-79
2021/12/16 04:46:32;;;;;;;30.35;19.35;;;28.80;55.20;;;;;;1816990;78;21594;-79
2021/12/16 04:49:04;;;;;;;24.37;17.62;;;28.80;54.90;;;;;;1829881;77;21150;-79
2021/12/16 04:51:38;;;;;;;23.73;16.90;;;28.90;53.80;;;;;;1840954;77;21159;-78
2021/12/16 04:54:10;;;;;;;21.77;15.55;;;29.00;53.70;;;;;;1829124;78;21170;-78
2021/12/16 04:56:42;;;;;;;24.35;16.70;;;29.10;53.90;;;;;;1831598;78;21092;-77
2021/12/16 04:59:17;;;;;;;23.98;16.15;;;29.20;53.60;;;;;;1832688;77;21594;-79
2021/12/16 05:01:50;;;;;;;20.85;15.50;;;29.30;54.10;;;;;;1828067;78;21672;-78
2021/12/16 05:04:22;;;;;;;24.37;16.10;;;29.30;54.00;;;;;;1834950;78;21146;-77
2021/12/16 05:06:53;;;;;;;23.85;17.02;;;29.40;52.20;;;;;;1833708;77;21630;-77
2021/12/16 05:11:57;;;;;;;22.10;16.20;;;29.50;52.30;;;;;;1829528;77;21170;-78
2021/12/16 05:14:28;;;;;;;21.35;17.10;;;29.60;51.60;;;;;;1837476;78;21662;-78
2021/12/16 05:17:00;;;;;;;24.07;15.68;;;29.70;51.30;;;;;;1843471;77;21166;-79
2021/12/16 05:19:30;;;;;;;21.37;16.37;;;29.80;51.60;;;;;;1801462;79;21142;-78
2021/12/16 05:24:33;;;;;;;23.38;16.65;;;29.80;52.20;;;;;;1846475;77;21512;-79
2021/12/16 05:27:07;;;;;;;23.25;16.55;;;29.80;52.50;;;;;;1826689;77;21084;-78
2021/12/16 05:29:38;;;;;;;26.57;18.98;;;29.90;51.10;;;;;;1787156;80;21162;-78
2021/12/16 05:32:09;;;;;;;26.40;17.45;;;30.00;52.40;;;;;;1817976;78;21174;-78
2021/12/16 05:34:40;;;;;;;26.62;19.00;;;30.10;50.90;;;;;;1846792;76;21689;-78
2021/12/16 05:37:11;;;;;;;31.48;20.52;;;30.10;52.20;;;;;;1815566;77;21136;-77
2021/12/16 05:39:42;;;;;;;22.10;16.40;;;30.10;50.90;;;;;;1818043;79;21646;-78
2021/12/16 05:42:13;;;;;;;24.40;16.85;;;30.10;51.20;;;;;;1823136;77;21212;-79
2021/12/16 05:44:44;;;;;;;19.67;16.30;;;30.10;51.90;;;;;;1817260;79;21094;-79
2021/12/16 05:47:14;;;;;;;21.60;16.20;;;30.10;50.70;;;;;;1817862;79;21168;-80
2021/12/16 05:49:45;;;;;;;23.35;15.90;;;30.10;52.10;;;;;;1824081;78;21087;-78
2021/12/16 05:52:16;;;;;;;18.90;15.88;;;30.10;51.50;;;;;;1816802;79;21197;-85
2021/12/16 05:54:47;;;;;;;26.15;17.45;;;30.20;50.40;;;;;;1819481;78;21162;-79
2021/12/16 05:57:18;;;;;;;23.00;16.60;;;30.20;51.20;;;;;;1813729;78;21723;-84
2021/12/16 05:59:49;;;;;;;22.02;16.42;;;30.20;51.40;;;;;;1817837;79;21097;-72
2021/12/16 06:02:20;;;;;;;23.55;16.32;;;30.20;50.70;;;;;;1819185;77;21158;-72
2021/12/16 06:04:51;;;;;;;22.58;16.95;;;30.30;50.90;;;;;;1828521;77;21176;-73
2021/12/16 06:07:22;;;;;;;24.25;16.55;;;30.30;51.10;;;;;;1814495;79;21263;-73
2021/12/16 06:09:53;;;;;;;25.05;15.45;;;30.30;50.70;;;;;;1839538;76;21841;-71
2021/12/16 06:12:25;;;;;;;17.35;15.00;;;30.30;50.70;;;;;;1815401;77;21114;-71
2021/12/16 06:15:16;;;;;;;25.00;15.53;;;30.40;51.30;;;;;;1828667;77;21175;-71
2021/12/16 06:27:41;;;;;;;21.57;15.83;;;30.50;50.90;;;;;;1814993;78;21121;-71
2021/12/16 06:30:14;;;;;;;29.12;17.77;;;30.40;50.70;;;;;;1818912;77;21512;-70
2021/12/16 06:32:46;;;;;;;23.02;16.00;;;30.40;51.60;;;;;;1815157;77;21218;-70
2021/12/16 06:35:18;;;;;;;22.87;15.30;;;30.40;50.90;;;;;;1809536;78;21150;-71
2021/12/16 06:37:48;;;;;;;59.98;26.15;;;30.40;50.10;;;;;;1822493;76;21606;-72
2021/12/16 06:40:20;;;;;;;52.78;23.07;;;30.50;50.70;;;;;;1847405;77;21148;-71
2021/12/16 06:42:54;;;;;;;21.68;14.87;;;30.60;50.10;;;;;;1848235;76;21102;-72
2021/12/16 06:45:28;;;;;;;22.32;15.43;;;30.60;49.70;;;;;;1846627;76;21155;-69
2021/12/16 06:48:01;;;;;;;16.02;13.65;;;30.70;49.40;;;;;;1846598;76;21099;-70
2021/12/16 06:53:03;;;;;;;19.12;14.80;;;30.60;48.70;;;;;;1871155;76;21249;-71
2021/12/16 06:55:42;;;;;;;19.30;14.33;;;30.60;49.10;;;;;;1875676;76;21149;-71
2021/12/16 06:58:17;;;;;;;16.40;13.22;;;30.60;48.90;;;;;;1817218;78;21644;-69
2021/12/16 07:00:45;;;;;;;18.98;14.07;;;30.70;49.20;;;;;;1846185;76;21543;-70
2021/12/16 07:03:21;;;;;;;22.30;14.40;;;30.70;48.90;;;;;;1856801;75;21202;-80
2021/12/16 07:05:46;;;;;;;23.12;14.75;;;30.70;48.70;;;;;;1849067;75;21192;-83
2021/12/16 07:08:52;;;;;;;19.00;13.90;;;30.70;49.20;;;;;;1821712;76;21723;-82
2021/12/16 07:10:56;;;;;;;18.42;14.43;;;30.70;49.10;;;;;;1839827;76;21153;-80
2021/12/16 07:13:36;;;;;;;18.45;13.38;;;30.70;48.40;;;;;;1847394;77;21111;-81
2021/12/16 07:16:00;;;;;;;17.48;13.80;;;30.70;48.70;;;;;;1847500;76;21653;-81
2021/12/16 07:18:31;;;;;;;22.60;15.08;;;30.70;48.80;;;;;;1879272;76;21164;-80
2021/12/16 07:21:03;;;;;;;17.35;14.55;;;30.70;49.00;;;;;;1852158;76;21245;-81
2021/12/16 07:23:34;;;;;;;23.00;14.20;;;30.80;48.80;;;;;;1825494;77;21829;-80
2021/12/16 07:26:05;;;;;;;20.55;13.55;;;30.80;48.30;;;;;;1834107;77;21165;-81
2021/12/16 07:28:37;;;;;;;20.95;13.15;;;30.70;48.80;;;;;;1861415;76;21248;-80
2021/12/16 07:31:10;;;;;;;19.85;13.15;;;30.80;48.80;;;;;;1865504;76;21646;-80
2021/12/16 07:33:41;;;;;;;18.12;12.98;;;30.80;50.20;;;;;;1846397;76;21602;-81
2021/12/16 07:36:18;;;;;;;15.68;12.37;;;30.70;48.70;;;;;;1862911;76;21115;-81
2021/12/16 07:38:44;;;;;;;18.62;13.35;;;30.70;49.50;;;;;;1838359;76;21156;-80
2021/12/16 07:41:20;;;;;;;30.97;16.10;;;30.70;50.10;;;;;;1814980;79;21221;-80
2021/12/16 07:44:49;;;;;;;15.75;11.63;;;30.60;49.80;;;;;;1817792;77;21162;-80
2021/12/16 07:46:21;;;;;;;26.93;16.62;;;30.70;49.50;;;;;;1814379;77;21229;-80
2021/12/16 07:48:52;;;;;;;30.02;15.03;;;30.60;49.20;;;;;;1834853;77;21646;-80
2021/12/16 07:51:23;;;;;;;27.90;14.80;;;30.70;49.50;;;;;;1818179;79;21225;-81
2021/12/16 07:53:56;;;;;;;27.02;15.85;;;30.60;49.20;;;;;;1818249;79;21186;-81
2021/12/16 07:56:28;;;;;;;27.10;15.23;;;30.60;50.00;;;;;;1823086;77;21232;-80
2021/12/16 07:58:58;;;;;;;23.87;14.10;;;30.70;49.50;;;;;;1745324;80;21683;-80
2021/12/16 08:01:30;;;;;;;27.95;15.63;;;30.60;49.90;;;;;;1820740;77;21629;-80
2021/12/16 08:04:01;;;;;;;22.00;15.00;;;30.60;50.10;;;;;;1820363;77;21088;-80
2021/12/16 08:06:34;;;;;;;17.27;13.88;;;30.60;50.30;;;;;;1822475;77;21172;-81
2021/12/16 08:09:07;;;;;;;19.77;14.35;;;30.50;49.30;;;;;;1821351;77;21194;-80
2021/12/16 08:11:41;;;;;;;20.37;14.35;;;30.50;49.70;;;;;;1850328;77;21611;-79
2021/12/16 08:14:12;;;;;;;29.00;16.52;;;30.40;50.10;;;;;;1826951;77;21218;-80
2021/12/16 08:16:43;;;;;;;26.70;13.88;;;30.40;50.60;;;;;;1819018;78;22017;-80
2021/12/16 08:19:14;;;;;;;28.75;15.35;;;30.40;50.80;;;;;;1815487;79;21671;-80
2021/12/16 08:21:45;;;;;;;17.07;13.15;;;30.30;51.00;;;;;;1815258;77;21234;-80
2021/12/16 08:24:17;;;;;;;18.90;12.93;;;30.40;50.90;;;;;;1823068;77;21259;-79
2021/12/16 08:26:50;;;;;;;26.25;16.27;;;30.30;50.70;;;;;;1823708;77;21168;-78
2021/12/16 08:29:21;;;;;;;22.20;15.40;;;30.30;51.40;;;;;;1841933;77;21702;-80
2021/12/16 08:31:53;;;;;;;25.23;15.70;;;30.30;51.40;;;;;;1825466;77;21645;-70
2021/12/16 08:34:27;;;;;;;19.50;14.93;;;30.30;51.70;;;;;;1822023;77;21906;-71
2021/12/16 08:36:57;;;;;;;19.42;12.85;;;30.30;51.10;;;;;;1807933;78;21171;-71
2021/12/16 08:39:29;;;;;;;18.80;13.25;;;30.30;51.00;;;;;;1817495;77;21123;-73
2021/12/16 08:42:01;;;;;;;16.70;12.50;;;30.30;51.10;;;;;;1816447;78;21636;-72
2021/12/16 08:44:32;;;;;;;23.62;14.18;;;30.30;51.10;;;;;;1818479;77;21215;-70
2021/12/16 08:47:05;;;;;;;12.88;11.03;;;30.30;51.40;;;;;;1821771;77;21217;-73
2021/12/16 08:49:36;;;;;;;16.10;12.18;;;30.30;50.90;;;;;;1814261;79;21243;-71
2021/12/16 08:52:11;;;;;;;19.65;13.00;;;30.30;50.70;;;;;;1809876;79;21703;-71
2021/12/16 08:54:45;;;;;;;18.60;11.68;;;30.20;50.60;;;;;;1820435;77;21119;-71
2021/12/16 08:57:18;;;;;;;19.85;14.30;;;30.20;50.60;;;;;;1761277;80;21158;-71
2021/12/16 08:59:51;;;;;;;18.48;13.65;;;30.20;51.10;;;;;;1786576;79;21111;-70
2021/12/16 09:02:24;;;;;;;19.60;12.88;;;30.10;51.10;;;;;;1755186;80;21178;-69
2021/12/16 09:04:58;;;;;;;17.50;12.18;;;30.10;51.30;;;;;;1756020;80;21217;-70
2021/12/16 09:07:31;;;;;;;18.25;11.53;;;30.10;51.10;;;;;;1777979;79;21159;-70
2021/12/16 09:10:05;;;;;;;16.07;11.55;;;30.00;51.10;;;;;;1816689;77;21623;-71
2021/12/16 09:12:51;;;;;;;15.63;11.25;;;30.00;51.10;;;;;;1827221;77;21114;-70
2021/12/16 09:15:12;;;;;;;16.90;12.10;;;29.90;51.10;;;;;;1816006;77;21159;-71
2021/12/16 09:17:43;;;;;;;15.48;12.05;;;29.90;51.10;;;;;;1811197;78;21689;-71
2021/12/16 09:20:17;;;;;;;15.28;11.22;;;29.90;51.30;;;;;;1818186;77;21724;-70
2021/12/16 09:22:50;;;;;;;20.80;15.00;;;29.90;51.30;;;;;;1755282;80;21160;-69
2021/12/16 09:25:32;;;;;;;19.00;13.58;;;29.90;51.50;;;;;;1821718;77;21201;-73
2021/12/16 09:28:20;;;;;;;15.55;12.85;;;29.90;51.60;;;;;;1780744;80;21200;-72
2021/12/16 09:30:53;;;;;;;18.50;12.00;;;29.90;51.70;;;;;;1793123;78;21155;-70
2021/12/16 09:33:27;;;;;;;16.57;11.97;;;29.90;51.70;;;;;;1817904;77;21559;-71
2021/12/16 09:36:01;;;;;;;18.87;13.50;;;29.80;51.40;;;;;;1829928;78;21150;-71
2021/12/16 09:38:35;;;;;;;15.98;12.47;;;29.70;51.70;;;;;;1826591;77;21745;-69
2021/12/16 09:41:08;;;;;;;18.65;13.65;;;29.70;51.80;;;;;;1834813;77;21115;-72
2021/12/16 09:43:43;;;;;;;15.85;11.90;;;29.60;51.80;;;;;;1837604;78;21589;-71
2021/12/16 09:46:19;;;;;;;17.23;13.08;;;29.60;52.10;;;;;;1860647;77;21212;-71
2021/12/16 09:49:01;;;;;;;15.60;11.10;;;29.50;51.80;;;;;;1841164;75;21181;-71
2021/12/16 09:51:34;;;;;;;15.23;10.93;;;29.50;52.00;;;;;;1844692;76;21106;-71
2021/12/16 09:54:08;;;;;;;19.25;13.28;;;29.40;51.80;;;;;;1839235;77;21212;-71
2021/12/16 09:56:41;;;;;;;17.98;12.30;;;29.40;51.90;;;;;;1832340;76;21176;-72
2021/12/16 09:59:14;;;;;;;15.43;11.75;;;29.40;51.80;;;;;;1838753;76;21183;-69
2021/12/16 10:01:47;;;;;;;19.98;12.98;;;29.40;52.40;;;;;;1841079;76;21178;-71
2021/12/16 10:04:21;;;;;;;18.62;14.38;;;29.40;52.70;;;;;;1835857;76;21209;-71
2021/12/16 10:06:54;;;;;;;18.92;13.62;;;29.30;52.70;;;;;;1836562;78;21149;-72
2021/12/16 10:09:27;;;;;;;19.55;13.90;;;29.30;52.80;;;;;;1853233;76;21177;-71
2021/12/16 10:12:08;;;;;;;21.05;14.00;;;29.30;52.90;;;;;;1845017;77;21633;-71
2021/12/16 10:14:46;;;;;;;21.48;13.00;;;29.30;52.90;;;;;;1840330;77;21204;-71
2021/12/16 10:19:37;;;;;;;25.12;15.95;;;29.20;53.40;;;;;;1836611;78;21622;-72
2021/12/16 10:22:10;;;;;;;18.30;13.50;;;29.10;52.90;;;;;;1839149;77;21568;-70
2021/12/16 10:24:41;;;;;;;20.70;12.60;;;29.10;53.40;;;;;;1835588;77;21629;-70
2021/12/16 10:27:14;;;;;;;17.20;13.50;;;29.10;54.30;;;;;;1844326;76;21205;-71
2021/12/16 10:29:47;;;;;;;20.92;14.25;;;29.10;54.40;;;;;;1842614;77;21246;-71
2021/12/16 10:32:20;;;;;;;18.82;13.95;;;29.00;54.60;;;;;;1840112;77;21177;-71
2021/12/16 10:34:54;;;;;;;25.55;17.15;;;28.90;54.60;;;;;;1839348;76;21161;-72
2021/12/16 10:37:27;;;;;;;23.27;14.65;;;28.90;54.50;;;;;;1845517;76;21219;-71
2021/12/16 10:40:00;;;;;;;22.10;13.70;;;28.80;54.30;;;;;;1807778;79;21200;-72
2021/12/16 10:42:33;;;;;;;18.25;12.33;;;28.80;55.30;;;;;;1789658;78;21137;-71
2021/12/16 10:45:04;;;;;;;23.55;13.00;;;28.80;56.00;;;;;;1794855;78;21171;-75
2021/12/16 10:47:35;;;;;;;26.62;13.20;;;28.70;56.10;;;;;;1802790;78;21089;-75
2021/12/16 10:50:10;;;;;;;32.78;15.20;;;28.60;56.20;;;;;;1807626;78;21750;-76
2021/12/16 10:52:41;;;;;;;28.23;15.63;;;28.60;56.50;;;;;;1793868;79;21514;-77
2021/12/16 10:55:12;;;;;;;27.73;16.57;;;28.50;56.90;;;;;;1796820;79;21186;-77
2021/12/16 10:57:44;;;;;;;28.00;15.58;;;28.40;57.10;;;;;;1802662;78;21198;-77
2021/12/16 11:00:18;;;;;;;30.62;16.55;;;28.30;57.30;;;;;;1792126;78;21148;-78
2021/12/16 11:02:49;;;;;;;33.08;16.65;;;28.30;57.50;;;;;;1800639;79;21221;-76
2021/12/16 11:05:27;;;;;;;38.28;16.55;;;28.20;57.50;;;;;;1797829;78;21115;-77
2021/12/16 11:07:59;;;;;;;;;;;28.20;57.50;;;;;;1794047;78;21201;-76
2021/12/16 11:10:35;;;;;;;28.20;15.38;;;28.20;57.30;;;;;;1798006;79;20214;-78
2021/12/16 11:13:09;;;;;;;28.80;16.55;;;28.20;57.40;;;;;;1807389;78;21147;-78
2021/12/16 11:15:42;;;;;;;29.00;17.60;;;28.10;58.40;;;;;;1793309;78;21152;-77
2021/12/16 11:18:14;;;;;;;32.53;16.62;;;28.10;58.70;;;;;;1779030;79;21144;-78
2021/12/16 11:20:46;;;;;;;35.78;19.37;;;28.00;59.00;;;;;;1792799;80;21140;-77
2021/12/16 11:23:20;;;;;;;41.23;18.52;;;28.00;59.10;;;;;;1796901;78;21644;-77
2021/12/16 11:25:51;;;;;;;24.82;17.23;;;27.90;59.30;;;;;;1780961;80;21151;-76
2021/12/16 11:28:24;;;;;;;26.50;16.93;;;27.80;59.40;;;;;;1790189;78;21084;-77
2021/12/16 11:30:58;;;;;;;26.30;17.70;;;27.70;59.70;;;;;;1792325;78;21620;-76
2021/12/16 11:33:32;;;;;;;27.52;17.10;;;27.70;59.70;;;;;;1794798;78;21742;-76
2021/12/16 11:36:04;;;;;;;31.02;17.95;;;27.60;59.80;;;;;;1819011;78;21694;-77
2021/12/16 11:38:48;;;;;;;29.18;17.55;;;27.50;60.00;;;;;;1790242;78;21376;-77
2021/12/16 11:41:22;;;;;;;33.98;21.77;;;27.50;60.40;;;;;;1832077;76;21189;-78
2021/12/16 11:43:56;;;;;;;41.58;23.12;;;27.40;60.40;;;;;;1847811;76;21159;-78
2021/12/16 11:46:28;;;;;;;35.17;21.02;;;27.40;60.90;;;;;;1864253;76;21153;-78
2021/12/16 11:49:02;;;;;;;39.85;21.87;;;27.40;61.50;;;;;;1839740;76;21176;-77
2021/12/16 11:51:36;;;;;;;37.88;21.40;;;27.40;61.90;;;;;;1846421;77;21711;-78
2021/12/16 11:54:09;;;;;;;34.73;20.80;;;27.30;62.00;;;;;;1846726;76;21202;-76
2021/12/16 11:56:41;;;;;;;33.50;20.10;;;27.30;62.10;;;;;;1845716;76;21198;-78
2021/12/16 11:59:14;;;;;;;32.50;19.30;;;27.30;62.60;;;;;;1859841;76;21212;-77
2021/12/16 12:01:45;;;;;;;32.05;18.80;;;27.30;62.40;;;;;;1857540;76;21915;-78
2021/12/16 12:04:16;;;;;;;33.35;18.85;;;27.30;61.70;;;;;;1866643;76;21481;-77
2021/12/16 12:06:48;;;;;;;33.58;20.20;;;27.30;62.00;;;;;;1855609;76;21094;-78
2021/12/16 12:09:20;;;;;;;32.75;19.62;;;27.30;62.50;;;;;;1846187;77;21086;-77
2021/12/16 12:11:51;;;;;;;29.87;18.05;;;27.20;62.10;;;;;;1846441;76;21137;-77
2021/12/16 12:14:21;;;;;;;30.70;18.55;;;27.20;61.90;;;;;;1854044;76;21223;-78
2021/12/16 12:16:53;;;;;;;37.23;20.75;;;27.20;61.80;;;;;;1835715;77;21141;-77
2021/12/16 12:19:25;;;;;;;31.48;18.80;;;27.20;62.80;;;;;;1816766;79;21658;-78
2021/12/16 12:22:00;;;;;;;40.98;19.95;;;27.20;61.70;;;;;;1847368;76;21134;-77
2021/12/16 12:24:32;;;;;;;34.03;20.37;;;27.10;61.90;;;;;;1854252;76;21219;-77
2021/12/16 12:27:08;;;;;;;41.30;21.55;;;27.10;62.30;;;;;;1807983;78;21658;-77
2021/12/16 12:29:39;;;;;;;37.55;21.45;;;27.10;62.50;;;;;;1855913;76;21613;-76
2021/12/16 12:32:12;;;;;;;37.28;21.82;;;27.10;62.70;;;;;;1860422;76;21206;-77
2021/12/16 12:34:45;;;;;;;38.28;20.17;;;27.10;62.80;;;;;;1854004;76;21084;-78
2021/12/16 12:37:19;;;;;;;35.50;20.60;;;27.00;62.70;;;;;;1831573;77;21128;-77
2021/12/16 12:39:52;;;;;;;37.30;20.50;;;27.00;62.90;;;;;;1846126;78;21192;-77
2021/12/16 12:42:24;;;;;;;29.02;20.05;;;27.00;62.70;;;;;;1837146;76;21200;-77
2021/12/16 12:44:55;;;;;;;34.40;19.87;;;27.00;63.00;;;;;;1835712;77;21618;-77
2021/12/16 12:47:28;;;;;;;32.75;19.20;;;27.00;62.90;;;;;;1813979;77;21157;-79
2021/12/16 12:50:02;;;;;;;32.48;18.87;;;26.90;62.60;;;;;;1817499;77;21150;-78
2021/12/16 12:52:34;;;;;;;29.23;18.23;;;26.90;62.70;;;;;;1749302;82;21641;-77
2021/12/16 12:55:08;;;;;;;30.15;19.32;;;26.90;62.40;;;;;;1798678;79;21662;-77
2021/12/16 12:57:41;;;;;;;30.27;18.55;;;26.90;62.20;;;;;;1813977;77;21216;-76
2021/12/16 13:00:14;;;;;;;27.25;17.65;;;26.90;62.20;;;;;;1813338;79;21143;-78
2021/12/16 13:02:45;;;;;;;27.65;17.85;;;26.90;62.00;;;;;;1807605;78;21158;-76
2021/12/16 13:05:18;;;;;;;29.37;18.20;;;26.90;61.90;;;;;;1816510;77;21083;-76
2021/12/16 13:07:52;;;;;;;25.80;17.65;;;26.90;61.90;;;;;;1816711;79;21657;-77
2021/12/16 13:10:25;;;;;;;28.77;18.12;;;26.90;62.00;;;;;;1812932;79;21668;-77
2021/12/16 13:13:14;;;;;;;30.05;17.98;;;26.90;61.90;;;;;;1813064;79;21593;-77
2021/12/16 13:26:15;;;;;;;34.95;16.97;;;26.80;61.90;;;;;;1810426;79;21814;-77
2021/12/16 13:31:02;;;;;;;29.10;18.23;;;26.80;61.50;;;;;;1800646;78;21141;-77
2021/12/16 13:33:34;;;;;;;25.68;17.73;;;26.70;61.50;;;;;;1810450;79;21235;-77
2021/12/16 13:36:14;;;;;;;25.48;17.60;;;26.70;61.80;;;;;;1811874;79;21598;-77
2021/12/16 13:38:37;;;;;;;27.55;18.50;;;26.70;61.80;;;;;;1814622;77;21195;-76
2021/12/16 13:41:10;;;;;;;30.57;18.00;;;26.60;61.70;;;;;;1840543;78;21211;-76
2021/12/16 13:43:42;;;;;;;29.70;16.80;;;26.60;61.70;;;;;;1831772;76;21267;-76
2021/12/16 13:49:12;;;;;;;33.78;18.85;;;26.60;61.70;;;;;;1758663;80;21924;-76
2021/12/16 14:04:35;;;;;;;39.18;25.23;;;26.60;65.10;;;;;;1816055;79;21131;-76
2021/12/16 14:06:54;;;;;;;45.17;24.70;;;26.50;65.20;;;;;;1809286;78;21191;-76
2021/12/16 14:09:15;;;;;;;45.35;26.95;;;26.50;65.60;;;;;;1816576;77;21221;-76
2021/12/16 14:14:31;;;;;;;43.17;25.15;;;26.50;66.00;;;;;;1832648;77;21145;-76
2021/12/16 14:25:00;;;;;;;43.68;26.82;;;26.40;66.50;;;;;;1815664;79;21309;-78
2021/12/16 14:31:05;;;;;;;40.78;26.80;;;26.30;66.50;;;;;;1813950;77;21627;-78
2021/12/16 14:35:00;;;;;;;43.60;27.85;;;26.30;66.90;;;;;;1817589;77;21170;-77
2021/12/16 14:37:34;;;;;;;46.40;28.47;;;26.20;67.20;;;;;;1831634;77;21537;-77
2021/12/16 14:40:15;;;;;;;50.12;29.42;;;26.20;67.40;;;;;;1801765;77;21141;-78
2021/12/16 14:47:56;;;;;;;48.13;27.55;;;26.10;67.40;;;;;;1810694;78;21111;-78
2021/12/16 14:50:16;;;;;;;45.65;28.27;;;26.10;67.80;;;;;;1814804;77;21085;-77
2021/12/16 14:52:48;;;;;;;48.25;28.23;;;26.10;67.70;;;;;;1816610;77;21555;-78
2021/12/16 14:55:20;;;;;;;44.90;27.80;;;26.00;67.90;;;;;;1807699;78;21626;-78
2021/12/16 14:57:53;;;;;;;43.83;26.97;;;25.90;67.90;;;;;;1801492;77;21218;-77
2021/12/16 15:00:29;;;;;;;40.85;26.87;;;25.90;67.90;;;;;;1818316;79;21171;-77
2021/12/16 15:03:01;;;;;;;51.00;29.35;;;25.90;67.90;;;;;;1817143;78;21717;-77
2021/12/16 15:05:35;;;;;;;43.33;26.68;;;25.90;67.90;;;;;;1828974;77;21589;-78
2021/12/16 15:08:08;;;;;;;41.08;27.27;;;25.90;67.80;;;;;;1818741;77;21178;-78
2021/12/16 15:10:40;;;;;;;39.03;26.55;;;25.90;67.50;;;;;;1848505;77;21155;-77
2021/12/16 15:13:26;;;;;;;39.25;25.60;;;25.90;67.20;;;;;;1848501;77;21610;-78
2021/12/16 15:16:06;;;;;;;43.50;27.37;;;25.90;66.90;;;;;;1826281;77;21201;-77
2021/12/16 15:43:55;;;;;;;47.95;27.90;;;25.80;66.60;;;;;;1818067;77;21164;-77
2021/12/16 15:46:19;;;;;;;41.28;27.45;;;25.70;66.60;;;;;;1819907;77;21623;-77
2021/12/16 15:48:52;;;;;;;43.38;27.48;;;25.70;66.90;;;;;;1818077;78;21143;-77
2021/12/16 15:51:25;;;;;;;40.45;27.52;;;25.70;66.90;;;;;;1818794;77;21127;-77
2021/12/16 15:53:59;;;;;;;40.55;26.45;;;25.60;66.80;;;;;;1818175;79;21101;-76
2021/12/16 15:56:34;;;;;;;37.65;25.32;;;25.60;67.20;;;;;;1787182;80;21625;-77
2021/12/16 15:59:06;;;;;;;44.73;25.68;;;25.50;67.20;;;;;;1832353;77;21226;-76
2021/12/16 16:01:37;;;;;;;39.65;26.02;;;25.50;67.10;;;;;;1844825;77;21156;-76
2021/12/16 16:04:10;;;;;;;42.83;25.27;;;25.50;67.10;;;;;;1798772;80;21109;-77
2021/12/16 16:06:44;;;;;;;39.83;24.02;;;25.50;67.10;;;;;;1816933;77;21542;-78
2021/12/16 16:09:16;;;;;;;40.38;23.62;;;25.50;66.90;;;;;;1817587;79;21166;-78
2021/12/16 16:11:50;;;;;;;33.83;23.47;;;25.60;66.50;;;;;;1795182;79;21603;-78
2021/12/16 16:14:23;;;;;;;33.88;22.90;;;25.60;66.40;;;;;;1839523;77;22093;-79
2021/12/16 16:16:58;;;;;;;38.60;23.45;;;25.60;66.10;;;;;;1818145;79;21151;-75
2021/12/16 16:19:30;;;;;;;35.30;21.70;;;25.60;65.90;;;;;;1828328;77;21144;-76
2021/12/16 16:22:03;;;;;;;33.75;21.75;;;25.60;65.70;;;;;;1843417;77;22378;-76
2021/12/16 16:24:36;;;;;;;30.08;21.07;;;25.70;65.00;;;;;;1820746;77;21148;-76
2021/12/16 16:27:10;;;;;;;31.10;21.48;;;25.70;64.80;;;;;;1815913;79;21231;-77
2021/12/16 16:29:43;;;;;;;35.05;21.87;;;25.70;64.90;;;;;;1821884;77;21671;-76
2021/12/16 16:32:15;;;;;;;33.63;20.92;;;25.70;64.70;;;;;;1813013;77;21226;-77
2021/12/16 16:34:48;;;;;;;33.23;20.57;;;25.80;64.40;;;;;;1785946;78;21668;-78
2021/12/16 16:37:22;;;;;;;29.48;20.48;;;25.80;64.20;;;;;;1841293;77;22282;-77
2021/12/16 16:39:56;;;;;;;30.12;20.52;;;25.80;63.90;;;;;;1819385;78;21134;-78
2021/12/16 16:42:30;;;;;;;28.90;20.30;;;25.80;64.00;;;;;;1834809;77;21654;-78
2021/12/16 16:45:01;;;;;;;27.73;19.92;;;25.80;63.80;;;;;;1826340;77;21146;-78